• Join FlightAware (Why Join?)
  • Login
  • US Flag 
06:41AM EST


 

Airport Tracker/Info


-or-


 

Live Flight TrackerFlight Track Log ✈ SWA193 ✈ 29-Apr-2013 ✈ KFLL - KISP

Flight Track Log - Related Links

Times and Time Zones

All times are in EDT time to prevent confusion due to time zone crossing. See the SWA193 flight status page for this flight to view local times or setup timezone preferences in your user account.

Time Position Orientation Groundspeed Altitude Reporting Facility
EDT Latitude Longitude Course Direction KTS MPH feet Rate Location/Type
07:42AM 26.0750 -80.1319 83° East 148 170 1,100  Level Miami Center
07:44AM 26.0828 -80.0653 83° East 217 250 3,200 2,340 Climbing Miami Center
07:45AM 26.0989 -79.9917 76° East 239 275 6,400 2,640 Climbing Miami Center
07:46AM 26.1381 -79.9233 57° Northeast 277 319 8,700 2,340 Climbing Miami Center
07:47AM 26.1775 -79.8361 63° Northeast 300 345 11,200 2,700 Climbing Miami Center
07:48AM 26.2253 -79.7378 62° Northeast 328 377 14,200 2,940 Climbing Miami Center
07:49AM 26.2775 -79.6350 60° Northeast 354 407 17,100 2,400 Climbing Miami Center
07:50AM 26.3442 -79.5367 53° Northeast 378 435 19,000 900 Climbing Miami Center
07:51AM 26.4086 -79.4361 54° Northeast 391 450 19,000 600 Level Miami Center
07:52AM 26.4750 -79.3378 53° Northeast 396 456 20,300 1,560 Climbing Miami Center
07:53AM 26.5414 -79.2322 55° Northeast 406 467 22,200 1,920 Climbing Miami Center
07:54AM 26.6122 -79.1244 54° Northeast 416 479 24,200 1,920 Climbing Miami Center
07:55AM 26.7217 -79.0661 25° Northeast 416 479 26,100 1,920 Climbing Miami Center
07:56AM 26.8414 -79.0194 19° North 421 484 28,100 1,860 Climbing Miami Center
07:57AM 26.9592 -78.9728 19° North 431 496 29,900 2,100 Climbing Miami Center
07:58AM 27.0894 -78.9192 20° North 441 507 32,300 2,160 Climbing Miami Center
07:59AM 27.1944 -78.8814 18° North 441 507 34,300 1,560 Climbing Miami Center
08:00AM 27.3078 -78.8436 16° North 435 501 35,500 1,200 Climbing Miami Center
08:01AM 27.4375 -78.8222 North 424 488 36,700 720 Climbing Miami Center
08:02AM 27.5567 -78.8011 North 430 495 37,000 120 Climbing Miami Center
08:03AM 27.6781 -78.7819 North 430 495 37,000  Level Miami Center
08:04AM 27.7850 -78.7603 10° North 430 495 37,000  Level Miami Center
08:05AM 27.9000 -78.7433 North 424 488 37,100 600 Climbing Miami Center
08:06AM 28.0214 -78.7219 North 424 488 38,200 900 Climbing Miami Center
08:07AM 28.1364 -78.7003 North 424 488 39,000 360 Climbing Miami Center
08:08AM 28.2578 -78.6761 10° North 435 501 39,000  Level Miami Center
08:09AM 28.3792 -78.6569 North 440 506 39,000  Level Miami Center
08:10AM 28.4983 -78.6353 North 440 506 39,000  Level Miami Center
08:11AM 28.6217 -78.6136 North 440 506 39,000  Level Miami Center
08:12AM 28.7411 -78.5894 10° North 440 506 39,000  Level Miami Center
08:13AM 28.8644 -78.5700 North 434 499 39,000  Level Miami Center
08:14AM 28.9856 -78.5458 10° North 439 505 39,000  Level Miami Center
08:15AM 29.1028 -78.5236 North 439 505 39,000  Level Miami Center
08:16AM 29.2242 -78.5017 North 439 505 39,000  Level Miami Center
08:17AM 29.3472 -78.4822 North 439 505 39,000  Level Miami Center
08:18AM 29.4667 -78.4578 10° North 434 499 39,000  Level Miami Center
08:19AM 29.5856 -78.4333 10° North 434 499 39,000  Level Miami Center
08:19AM 29.6494 -78.4122 16° North 430 495 39,000  Level Jacksonville Center
08:20AM 29.7803 -78.3967 North 437 503 39,000  Level Jacksonville Center
08:21AM 29.8961 -78.3697 11° North 443 510 39,000  Level Jacksonville Center
08:22AM 30.0311 -78.3514 North 455 524 39,000  Level Jacksonville Center
08:23AM 30.1400 -78.2983 23° Northeast 443 510 39,000  Level Jacksonville Center
08:24AM 30.2556 -78.2614 15° North 435 501 39,000  Level Jacksonville Center
08:25AM 30.3792 -78.2217 15° North 440 506 39,000  Level Jacksonville Center
08:26AM 30.4967 -78.1822 16° North 448 516 39,000  Level Jacksonville Center
08:27AM 30.6183 -78.1425 16° North 448 516 39,000  Level Jacksonville Center
08:28AM 30.7464 -78.1047 14° North 447 514 39,000  Level Jacksonville Center
08:29AM 30.8575 -78.0650 17° North 447 514 39,000  Level Jacksonville Center
08:30AM 30.9836 -78.0272 14° North 447 514 39,000  Level Jacksonville Center
08:31AM 31.1128 -77.9719 20° North 447 514 39,000  Level Jacksonville Center
08:32AM 31.2325 -77.9367 14° North 444 511 39,000  Level Jacksonville Center
08:33AM 31.3542 -77.8986 15° North 443 510 39,000  Level Jacksonville Center
08:34AM 31.4733 -77.8483 20° North 449 517 39,000  Level Jacksonville Center
08:35AM 31.5947 -77.8075 16° North 445 512 39,000  Level Jacksonville Center
08:36AM 31.7042 -77.7747 14° North 456 525 39,000  Level Jacksonville Center
08:37AM 31.8258 -77.7411 13° North 450 518 39,000  Level Jacksonville Center
08:38AM 31.9469 -77.6903 20° North 450 518 39,000  Level Jacksonville Center
08:39AM 32.0667 -77.6564 13° North 446 513 39,000  Level Jacksonville Center
08:40AM 32.1881 -77.6153 16° North 451 519 39,000  Level Jacksonville Center
08:41AM 32.3092 -77.5689 18° North 451 519 39,000  Level Jacksonville Center
08:42AM 32.4286 -77.5300 15° North 451 519 39,000  Level Jacksonville Center
08:43AM 32.5500 -77.4908 15° North 451 519 39,000  Level Jacksonville Center
08:44AM 32.6714 -77.4467 17° North 451 519 39,000  Level Jacksonville Center
08:45AM 32.7947 -77.4044 16° North 451 519 39,000  Level Jacksonville Center
08:46AM 32.9386 -77.3581 15° North 449 517 39,000  Level Washington Center
08:47AM 33.0600 -77.3161 16° North 449 517 39,000  Level Washington Center
08:48AM 33.1839 -77.2714 17° North 454 522 39,000  Level Washington Center
08:49AM 33.3053 -77.2292 16° North 454 522 39,000  Level Washington Center
08:50AM 33.4247 -77.1892 16° North 454 522 39,000  Level Washington Center
08:51AM 33.5464 -77.1442 17° North 454 522 39,000  Level Washington Center
08:52AM 33.6700 -77.1014 16° North 454 522 39,000  Level Washington Center
08:53AM 33.7914 -77.0614 15° North 454 522 39,000  Level Washington Center
08:54AM 33.9089 -77.0158 18° North 454 522 39,000  Level Washington Center
08:55AM 34.0283 -76.9753 16° North 449 517 39,000  Level Washington Center
08:56AM 34.1497 -76.9347 15° North 449 517 39,000  Level Washington Center
08:57AM 34.2692 -76.8914 17° North 444 511 39,000  Level Washington Center
08:58AM 34.3842 -76.8478 17° North 436 502 39,000  Level Washington Center
08:59AM 34.5058 -76.8069 15° North 436 502 39,000  Level Washington Center
09:00AM 34.6208 -76.7656 16° North 436 502 39,000  Level Washington Center
09:01AM 34.7444 -76.7244 15° North 442 509 39,000  Level Washington Center
09:02AM 34.8594 -76.6806 17° North 437 503 39,000  Level Washington Center
09:03AM 34.9789 -76.6364 17° North 437 503 39,000  Level Washington Center
09:04AM 35.0939 -76.5922 17° North 437 503 39,000  Level Washington Center
09:05AM 35.2133 -76.5481 17° North 437 503 39,000  Level Washington Center
09:06AM 35.3472 -76.4986 17° North 437 503 39,000  Level Washington Center
09:07AM 35.4622 -76.4567 17° North 437 503 39,000  Level Washington Center
09:08AM 35.5817 -76.4067 19° North 437 503 39,000  Level Washington Center
09:09AM 35.7028 -76.3672 15° North 437 503 39,000  Level Washington Center
09:10AM 35.8219 -76.3194 18° North 437 503 39,000  Level Washington Center
09:11AM 35.9433 -76.2769 16° North 437 503 39,000  Level Washington Center
09:12AM 36.0647 -76.2319 17° North 437 503 39,000  Level Washington Center
09:13AM 36.1858 -76.1839 18° North 437 503 39,000  Level Washington Center
09:14AM 36.3069 -76.1411 16° North 437 503 39,000  Level Washington Center
09:15AM 36.4303 -76.0953 17° North 437 503 39,000  Level Washington Center
09:16AM 36.5517 -76.0497 17° North 443 510 39,000  Level Washington Center
09:17AM 36.6728 -76.0011 18° North 449 517 39,000  Level Washington Center
09:18AM 36.7981 -75.9550 16° North 449 517 39,000  Level Washington Center
09:19AM 36.9192 -75.9061 18° North 454 522 39,000  Level Washington Center
09:20AM 37.0339 -75.8650 16° North 472 543 39,000  Level Washington Center
09:21AM 37.1572 -75.8186 17° North 472 543 39,000  Level Washington Center
09:22AM 37.2783 -75.7744 16° North 461 531 39,000  Level Washington Center
09:23AM 37.3992 -75.7253 18° North 461 531 39,000  Level Washington Center
09:24AM 37.5203 -75.6783 17° North 461 531 39,000  Level Washington Center
09:25AM 37.6392 -75.6128 24° Northeast 455 524 39,000  Level Washington Center
09:26AM 37.7519 -75.5367 28° Northeast 455 524 39,000  Level Washington Center
09:27AM 37.8664 -75.4628 27° Northeast 455 524 39,000  Level Washington Center
09:28AM 37.9789 -75.3917 26° Northeast 450 518 39,000  Level Washington Center
09:29AM 38.0956 -75.3147 27° Northeast 450 518 39,000  Level Washington Center
09:30AM 38.2081 -75.2431 27° Northeast 450 518 39,000  Level Washington Center
09:31AM 38.3225 -75.1631 29° Northeast 450 518 39,000  Level Washington Center
09:32AM 38.4369 -75.0881 27° Northeast 456 525 39,000  Level Washington Center
09:33AM 38.5492 -75.0103 28° Northeast 456 525 39,000  Level Washington Center
09:34AM 38.6614 -74.9350 28° Northeast 450 518 39,000 -1,140 Level Washington Center
09:35AM 38.7775 -74.8619 26° Northeast 455 524 36,800 -2,280 Descending Washington Center
09:36AM 38.8958 -74.7781 29° Northeast 460 529 34,400 -2,220 Descending Washington Center
09:37AM 39.0119 -74.7019 27° Northeast 466 536 32,300 -2,160 Descending Washington Center
09:39AM 39.1483 -74.6097 28° Northeast 470 541 29,800 -2,100 Descending New York Center
09:40AM 39.2572 -74.5353 28° Northeast 458 527 27,800 -2,100 Descending New York Center
09:41AM 39.3442 -74.4244 45° Northeast 434 499 25,700 -2,100 Descending New York Center
09:42AM 39.4208 -74.3019 51° Northeast 434 499 23,700 -1,980 Descending New York Center
09:43AM 39.4972 -74.1850 50° Northeast 434 499 21,700 -1,380 Descending New York Center
09:44AM 39.5694 -74.0697 51° Northeast 415 478 21,000 -600 Descending New York Center
09:45AM 39.6411 -73.9572 50° Northeast 403 464 20,600 -840 Descending New York Center
09:46AM 39.7153 -73.8392 51° Northeast 398 458 19,400 -1,140 Descending New York Center
09:47AM 39.7828 -73.7314 51° Northeast 387 445 18,400 -840 Descending New York Center
09:49AM 39.9092 -73.5328 50° Northeast 396 456 17,000 -900 Descending Boston Center
09:50AM 39.9953 -73.4367 41° Northeast 380 437 15,800 -1,140 Descending Boston Center
09:51AM 40.0669 -73.3511 42° Northeast 360 414 14,800 -1,200 Descending Boston Center
09:52AM 40.1236 -73.2814 43° Northeast 354 407 13,400 -1,860 Descending Boston Center
09:53AM 40.2078 -73.1819 42° Northeast 341 392 11,100 -1,680 Descending Boston Center
09:54AM 40.2750 -73.1011 43° Northeast 336 387 10,100 -1,080 Descending Boston Center
09:55AM 40.3358 -73.0308 41° Northeast 315 362 9,000 -1,020 Descending Boston Center
09:57AM 40.4667 -72.8667 44° Northeast 279 321 6,900 -1,080 Descending New York TRACON
09:58AM 40.5333 -72.8333 21° North 277 319 5,600 -1,320 Descending New York TRACON
09:59AM 40.6000 -72.8500 349° North 273 314 4,300 -840 Descending New York TRACON
10:00AM 40.6667 -72.8833 339° North 264 304 4,000 -180 Descending New York TRACON
10:01AM 40.7500 -72.9000 351° North 256 295 4,000 -480 Level New York TRACON
10:02AM 40.8000 -72.9333 333° Northwest 236 272 3,100 -1,020 Descending New York TRACON
10:03AM 40.8333 -73.0000 303° West 214 246 2,000 -1,020 Descending New York TRACON
10:04AM 40.8333 -73.0500 270° West 174 200 1,100 -900 Descending New York TRACON
10:05AM 40.8167 -73.0833 237° Southwest 136 157 300 -900 Descending New York TRACON